Terminal Aerodrome Forecast
Issued by NWS

Home | Current Version | Previous Version | Text Only | Print | Product List | Glossary On
Versions: 1 2 3 4 5 6 7 8 9 10 11 12 13 14 15 16 17
000
FTAK31 PANC 081340 AAA
TAFAIL
TAF AMD
PAIL 081340Z 0814/0912 35012KT P6SM SCT015 OVC060
      TEMPO 0814/0818 -SHSN BKN015
     FM082300 35008KT P6SM FEW150 BKN250=

USA.gov is the U.S. government's official web portal to all federal, state and local government web resources and services.